sensor_id;sensor_type;location;lat;lon;timestamp;temperature;humidity
12089;DHT22;6107;49.078;8.578;2022-11-23T00:00:03;5.60;99.90
12089;DHT22;6107;49.078;8.578;2022-11-23T00:02:29;5.70;99.90
12089;DHT22;6107;49.078;8.578;2022-11-23T00:04:55;5.80;99.90
12089;DHT22;6107;49.078;8.578;2022-11-23T00:07:20;5.80;99.90
12089;DHT22;6107;49.078;8.578;2022-11-23T00:09:46;5.80;99.90
12089;DHT22;6107;49.078;8.578;2022-11-23T00:12:11;5.90;99.90
12089;DHT22;6107;49.078;8.578;2022-11-23T00:14:37;5.80;99.90
12089;DHT22;6107;49.078;8.578;2022-11-23T00:17:02;5.80;99.90
12089;DHT22;6107;49.078;8.578;2022-11-23T00:19:28;5.90;99.90
12089;DHT22;6107;49.078;8.578;2022-11-23T00:21:53;6.00;99.90
12089;DHT22;6107;49.078;8.578;2022-11-23T00:24:19;5.70;99.90
12089;DHT22;6107;49.078;8.578;2022-11-23T00:26:44;5.80;99.90
12089;DHT22;6107;49.078;8.578;2022-11-23T00:29:10;5.60;99.90
12089;DHT22;6107;49.078;8.578;2022-11-23T00:31:35;5.70;99.90
12089;DHT22;6107;49.078;8.578;2022-11-23T00:34:01;5.70;99.90
12089;DHT22;6107;49.078;8.578;2022-11-23T00:36:27;5.80;99.90
12089;DHT22;6107;49.078;8.578;2022-11-23T00:38:53;5.80;99.90
12089;DHT22;6107;49.078;8.578;2022-11-23T00:41:23;5.70;99.90
12089;DHT22;6107;49.078;8.578;2022-11-23T00:43:49;5.50;99.90
12089;DHT22;6107;49.078;8.578;2022-11-23T00:46:20;5.50;99.90
12089;DHT22;6107;49.078;8.578;2022-11-23T00:48:48;5.50;99.90
12089;DHT22;6107;49.078;8.578;2022-11-23T00:51:18;5.60;99.90
12089;DHT22;6107;49.078;8.578;2022-11-23T00:53:44;5.60;99.90
12089;DHT22;6107;49.078;8.578;2022-11-23T00:56:09;5.70;99.90
12089;DHT22;6107;49.078;8.578;2022-11-23T00:58:35;5.70;99.90
12089;DHT22;6107;49.078;8.578;2022-11-23T01:01:07;5.70;99.90
12089;DHT22;6107;49.078;8.578;2022-11-23T01:03:34;5.80;99.90
12089;DHT22;6107;49.078;8.578;2022-11-23T01:06:11;5.90;99.90
12089;DHT22;6107;49.078;8.578;2022-11-23T01:08:38;5.80;99.90
12089;DHT22;6107;49.078;8.578;2022-11-23T01:11:06;5.90;99.90
12089;DHT22;6107;49.078;8.578;2022-11-23T01:13:32;5.90;99.90
12089;DHT22;6107;49.078;8.578;2022-11-23T01:15:58;5.70;99.90
12089;DHT22;6107;49.078;8.578;2022-11-23T01:18:24;5.70;99.90
12089;DHT22;6107;49.078;8.578;2022-11-23T01:20:50;5.60;99.90
12089;DHT22;6107;49.078;8.578;2022-11-23T01:23:16;5.60;99.90
12089;DHT22;6107;49.078;8.578;2022-11-23T01:25:41;5.50;99.90
12089;DHT22;6107;49.078;8.578;2022-11-23T01:28:07;5.40;99.90
12089;DHT22;6107;49.078;8.578;2022-11-23T01:30:32;5.30;99.90
12089;DHT22;6107;49.078;8.578;2022-11-23T01:32:59;5.20;99.90
12089;DHT22;6107;49.078;8.578;2022-11-23T01:35:24;5.30;99.90
12089;DHT22;6107;49.078;8.578;2022-11-23T01:37:50;5.10;99.90
12089;DHT22;6107;49.078;8.578;2022-11-23T01:40:15;5.10;99.90
12089;DHT22;6107;49.078;8.578;2022-11-23T01:42:57;4.90;99.90
12089;DHT22;6107;49.078;8.578;2022-11-23T01:45:34;4.80;99.90
12089;DHT22;6107;49.078;8.578;2022-11-23T01:48:02;4.90;99.90
12089;DHT22;6107;49.078;8.578;2022-11-23T01:50:30;5.20;99.90
12089;DHT22;6107;49.078;8.578;2022-11-23T01:52:56;5.20;99.90
12089;DHT22;6107;49.078;8.578;2022-11-23T01:55:22;5.30;99.90
12089;DHT22;6107;49.078;8.578;2022-11-23T01:57:48;5.30;99.90
12089;DHT22;6107;49.078;8.578;2022-11-23T02:00:14;5.20;99.90
12089;DHT22;6107;49.078;8.578;2022-11-23T02:02:44;5.40;99.90
12089;DHT22;6107;49.078;8.578;2022-11-23T02:05:13;5.20;99.90
12089;DHT22;6107;49.078;8.578;2022-11-23T02:07:40;5.30;99.90
12089;DHT22;6107;49.078;8.578;2022-11-23T02:10:06;5.30;99.90
12089;DHT22;6107;49.078;8.578;2022-11-23T02:12:32;5.20;99.90
12089;DHT22;6107;49.078;8.578;2022-11-23T02:14:57;5.40;99.90
12089;DHT22;6107;49.078;8.578;2022-11-23T02:17:23;5.30;99.90
12089;DHT22;6107;49.078;8.578;2022-11-23T02:20:02;5.60;99.90
12089;DHT22;6107;49.078;8.578;2022-11-23T02:25:07;5.70;99.90
12089;DHT22;6107;49.078;8.578;2022-11-23T02:27:35;5.80;99.90
12089;DHT22;6107;49.078;8.578;2022-11-23T02:30:01;5.90;99.90
12089;DHT22;6107;49.078;8.578;2022-11-23T02:32:27;5.90;99.90
12089;DHT22;6107;49.078;8.578;2022-11-23T02:34:53;6.00;99.90
12089;DHT22;6107;49.078;8.578;2022-11-23T02:37:19;6.10;99.90
12089;DHT22;6107;49.078;8.578;2022-11-23T02:39:48;6.00;99.90
12089;DHT22;6107;49.078;8.578;2022-11-23T02:42:14;5.90;99.90
12089;DHT22;6107;49.078;8.578;2022-11-23T02:44:59;5.80;99.90
12089;DHT22;6107;49.078;8.578;2022-11-23T02:47:29;5.90;99.90
12089;DHT22;6107;49.078;8.578;2022-11-23T02:49:55;6.10;99.90
12089;DHT22;6107;49.078;8.578;2022-11-23T02:52:20;6.00;99.90
12089;DHT22;6107;49.078;8.578;2022-11-23T02:54:46;5.90;99.90
12089;DHT22;6107;49.078;8.578;2022-11-23T02:57:11;6.00;99.90
12089;DHT22;6107;49.078;8.578;2022-11-23T02:59:37;6.00;99.90
12089;DHT22;6107;49.078;8.578;2022-11-23T03:02:03;6.50;99.90
12089;DHT22;6107;49.078;8.578;2022-11-23T03:04:30;6.10;99.90
12089;DHT22;6107;49.078;8.578;2022-11-23T03:06:56;5.90;99.90
12089;DHT22;6107;49.078;8.578;2022-11-23T03:09:21;6.00;99.90
12089;DHT22;6107;49.078;8.578;2022-11-23T03:11:47;5.90;99.90
12089;DHT22;6107;49.078;8.578;2022-11-23T03:14:12;6.20;99.90
12089;DHT22;6107;49.078;8.578;2022-11-23T03:16:38;6.00;99.90
12089;DHT22;6107;49.078;8.578;2022-11-23T03:19:04;6.00;99.90
12089;DHT22;6107;49.078;8.578;2022-11-23T03:21:30;6.00;99.90
12089;DHT22;6107;49.078;8.578;2022-11-23T03:23:55;6.00;99.90
12089;DHT22;6107;49.078;8.578;2022-11-23T03:26:21;6.10;99.90
12089;DHT22;6107;49.078;8.578;2022-11-23T03:28:46;5.90;99.90
12089;DHT22;6107;49.078;8.578;2022-11-23T03:31:12;5.80;99.90
12089;DHT22;6107;49.078;8.578;2022-11-23T03:33:37;5.90;99.90
12089;DHT22;6107;49.078;8.578;2022-11-23T03:36:03;5.60;99.90
12089;DHT22;6107;49.078;8.578;2022-11-23T03:38:29;5.80;99.90
12089;DHT22;6107;49.078;8.578;2022-11-23T03:40:55;5.90;99.90
12089;DHT22;6107;49.078;8.578;2022-11-23T03:43:20;5.90;99.90
12089;DHT22;6107;49.078;8.578;2022-11-23T03:45:46;6.00;99.90
12089;DHT22;6107;49.078;8.578;2022-11-23T03:48:12;5.90;99.90
12089;DHT22;6107;49.078;8.578;2022-11-23T03:50:38;5.80;99.90
12089;DHT22;6107;49.078;8.578;2022-11-23T03:53:03;5.90;99.90
12089;DHT22;6107;49.078;8.578;2022-11-23T03:55:30;5.70;99.90
12089;DHT22;6107;49.078;8.578;2022-11-23T03:57:56;5.80;99.90
12089;DHT22;6107;49.078;8.578;2022-11-23T04:00:24;5.80;99.90
12089;DHT22;6107;49.078;8.578;2022-11-23T04:02:50;5.80;99.90
12089;DHT22;6107;49.078;8.578;2022-11-23T04:05:16;6.00;99.90
12089;DHT22;6107;49.078;8.578;2022-11-23T04:07:42;6.00;99.90
12089;DHT22;6107;49.078;8.578;2022-11-23T04:10:07;5.90;99.90
12089;DHT22;6107;49.078;8.578;2022-11-23T04:12:33;5.90;99.90
12089;DHT22;6107;49.078;8.578;2022-11-23T04:14:58;5.90;99.90
12089;DHT22;6107;49.078;8.578;2022-11-23T04:17:24;5.80;99.90
12089;DHT22;6107;49.078;8.578;2022-11-23T04:19:49;5.80;99.90
12089;DHT22;6107;49.078;8.578;2022-11-23T04:22:15;5.80;99.90
12089;DHT22;6107;49.078;8.578;2022-11-23T04:24:40;5.60;99.90
12089;DHT22;6107;49.078;8.578;2022-11-23T04:27:06;5.50;99.90
12089;DHT22;6107;49.078;8.578;2022-11-23T04:29:31;5.70;99.90
12089;DHT22;6107;49.078;8.578;2022-11-23T04:31:57;5.80;99.90
12089;DHT22;6107;49.078;8.578;2022-11-23T04:34:22;5.80;99.90
12089;DHT22;6107;49.078;8.578;2022-11-23T04:36:48;5.90;99.90
12089;DHT22;6107;49.078;8.578;2022-11-23T04:39:13;5.90;99.90
12089;DHT22;6107;49.078;8.578;2022-11-23T04:41:39;5.90;99.90
12089;DHT22;6107;49.078;8.578;2022-11-23T04:44:05;6.00;99.90
12089;DHT22;6107;49.078;8.578;2022-11-23T04:46:31;6.00;99.90
12089;DHT22;6107;49.078;8.578;2022-11-23T04:48:56;6.10;99.90
12089;DHT22;6107;49.078;8.578;2022-11-23T04:51:22;6.00;99.90
12089;DHT22;6107;49.078;8.578;2022-11-23T04:53:47;5.90;99.90
12089;DHT22;6107;49.078;8.578;2022-11-23T04:56:13;5.90;99.90
12089;DHT22;6107;49.078;8.578;2022-11-23T04:58:38;5.90;99.90
12089;DHT22;6107;49.078;8.578;2022-11-23T05:01:05;5.90;99.90
12089;DHT22;6107;49.078;8.578;2022-11-23T05:03:31;5.90;99.90
12089;DHT22;6107;49.078;8.578;2022-11-23T05:06:00;5.80;99.90
12089;DHT22;6107;49.078;8.578;2022-11-23T05:08:25;5.90;99.90
12089;DHT22;6107;49.078;8.578;2022-11-23T05:10:51;5.80;99.90
12089;DHT22;6107;49.078;8.578;2022-11-23T05:13:17;5.70;99.90
12089;DHT22;6107;49.078;8.578;2022-11-23T05:15:42;5.70;99.90
12089;DHT22;6107;49.078;8.578;2022-11-23T05:18:08;5.80;99.90
12089;DHT22;6107;49.078;8.578;2022-11-23T05:20:35;5.90;99.90
12089;DHT22;6107;49.078;8.578;2022-11-23T05:23:00;5.70;99.90
12089;DHT22;6107;49.078;8.578;2022-11-23T05:25:26;5.50;99.90
12089;DHT22;6107;49.078;8.578;2022-11-23T05:27:52;5.50;99.90
12089;DHT22;6107;49.078;8.578;2022-11-23T05:30:18;5.50;99.90
12089;DHT22;6107;49.078;8.578;2022-11-23T05:32:44;5.60;99.90
12089;DHT22;6107;49.078;8.578;2022-11-23T05:35:10;5.60;99.90
12089;DHT22;6107;49.078;8.578;2022-11-23T05:37:36;5.70;99.90
12089;DHT22;6107;49.078;8.578;2022-11-23T05:40:02;5.80;99.90
12089;DHT22;6107;49.078;8.578;2022-11-23T05:42:28;5.90;99.90
12089;DHT22;6107;49.078;8.578;2022-11-23T05:44:53;5.80;99.90
12089;DHT22;6107;49.078;8.578;2022-11-23T05:47:19;5.70;99.90
12089;DHT22;6107;49.078;8.578;2022-11-23T05:49:44;5.50;99.90
12089;DHT22;6107;49.078;8.578;2022-11-23T05:52:10;5.40;99.90
12089;DHT22;6107;49.078;8.578;2022-11-23T05:54:35;5.60;99.90
12089;DHT22;6107;49.078;8.578;2022-11-23T05:57:01;5.50;99.90
12089;DHT22;6107;49.078;8.578;2022-11-23T05:59:26;5.30;99.90
12089;DHT22;6107;49.078;8.578;2022-11-23T06:01:52;5.10;99.90
12089;DHT22;6107;49.078;8.578;2022-11-23T06:04:17;5.10;99.90
12089;DHT22;6107;49.078;8.578;2022-11-23T06:06:43;5.00;99.90
12089;DHT22;6107;49.078;8.578;2022-11-23T06:09:09;5.00;99.90
12089;DHT22;6107;49.078;8.578;2022-11-23T06:11:35;5.00;99.90
12089;DHT22;6107;49.078;8.578;2022-11-23T06:14:00;5.00;99.90
12089;DHT22;6107;49.078;8.578;2022-11-23T06:16:26;4.80;99.90
12089;DHT22;6107;49.078;8.578;2022-11-23T06:18:52;4.90;99.90
12089;DHT22;6107;49.078;8.578;2022-11-23T06:21:18;4.70;99.90
12089;DHT22;6107;49.078;8.578;2022-11-23T06:23:45;4.40;99.90
12089;DHT22;6107;49.078;8.578;2022-11-23T06:26:10;4.30;99.90
12089;DHT22;6107;49.078;8.578;2022-11-23T06:28:36;4.10;99.90
12089;DHT22;6107;49.078;8.578;2022-11-23T06:31:04;4.30;99.90
12089;DHT22;6107;49.078;8.578;2022-11-23T06:33:31;4.30;99.90
12089;DHT22;6107;49.078;8.578;2022-11-23T06:35:58;4.50;99.90
12089;DHT22;6107;49.078;8.578;2022-11-23T06:38:25;4.50;99.90
12089;DHT22;6107;49.078;8.578;2022-11-23T06:40:51;4.60;99.90
12089;DHT22;6107;49.078;8.578;2022-11-23T06:43:16;4.30;99.90
12089;DHT22;6107;49.078;8.578;2022-11-23T06:45:42;4.00;99.90
12089;DHT22;6107;49.078;8.578;2022-11-23T06:48:08;4.00;99.90
12089;DHT22;6107;49.078;8.578;2022-11-23T06:50:33;4.10;99.90
12089;DHT22;6107;49.078;8.578;2022-11-23T06:52:59;4.20;99.90
12089;DHT22;6107;49.078;8.578;2022-11-23T06:55:24;4.10;99.90
12089;DHT22;6107;49.078;8.578;2022-11-23T06:57:50;4.00;99.90
12089;DHT22;6107;49.078;8.578;2022-11-23T07:00:17;4.10;99.90
12089;DHT22;6107;49.078;8.578;2022-11-23T07:02:43;4.40;99.90
12089;DHT22;6107;49.078;8.578;2022-11-23T07:05:09;4.30;99.90
12089;DHT22;6107;49.078;8.578;2022-11-23T07:07:34;4.20;99.90
12089;DHT22;6107;49.078;8.578;2022-11-23T07:10:00;4.10;99.90
12089;DHT22;6107;49.078;8.578;2022-11-23T07:12:26;4.00;99.90
12089;DHT22;6107;49.078;8.578;2022-11-23T07:14:51;4.00;99.90
12089;DHT22;6107;49.078;8.578;2022-11-23T07:17:17;4.00;99.90
12089;DHT22;6107;49.078;8.578;2022-11-23T07:19:42;3.90;99.90
12089;DHT22;6107;49.078;8.578;2022-11-23T07:22:08;3.80;99.90
12089;DHT22;6107;49.078;8.578;2022-11-23T07:24:34;3.90;99.90
12089;DHT22;6107;49.078;8.578;2022-11-23T07:26:59;3.80;99.90
12089;DHT22;6107;49.078;8.578;2022-11-23T07:29:25;3.90;99.90
12089;DHT22;6107;49.078;8.578;2022-11-23T07:31:51;3.80;99.90
12089;DHT22;6107;49.078;8.578;2022-11-23T07:34:16;3.80;99.90
12089;DHT22;6107;49.078;8.578;2022-11-23T07:36:42;3.90;99.90
12089;DHT22;6107;49.078;8.578;2022-11-23T07:39:07;3.90;99.90
12089;DHT22;6107;49.078;8.578;2022-11-23T07:41:33;4.00;99.90
12089;DHT22;6107;49.078;8.578;2022-11-23T07:43:59;4.10;99.90
12089;DHT22;6107;49.078;8.578;2022-11-23T07:46:24;4.00;99.90
12089;DHT22;6107;49.078;8.578;2022-11-23T07:48:50;4.00;99.90
12089;DHT22;6107;49.078;8.578;2022-11-23T07:51:15;4.10;99.90
12089;DHT22;6107;49.078;8.578;2022-11-23T07:53:43;3.90;99.90
12089;DHT22;6107;49.078;8.578;2022-11-23T07:56:09;4.00;99.90
12089;DHT22;6107;49.078;8.578;2022-11-23T07:58:34;4.00;99.90
12089;DHT22;6107;49.078;8.578;2022-11-23T08:01:00;4.10;99.90
12089;DHT22;6107;49.078;8.578;2022-11-23T08:03:25;4.00;99.90
12089;DHT22;6107;49.078;8.578;2022-11-23T08:05:51;4.00;99.90
12089;DHT22;6107;49.078;8.578;2022-11-23T08:08:17;3.90;99.90
12089;DHT22;6107;49.078;8.578;2022-11-23T08:10:42;3.90;99.90
12089;DHT22;6107;49.078;8.578;2022-11-23T08:13:08;3.80;99.90
12089;DHT22;6107;49.078;8.578;2022-11-23T08:15:34;3.80;99.90
12089;DHT22;6107;49.078;8.578;2022-11-23T08:18:02;3.80;99.90
12089;DHT22;6107;49.078;8.578;2022-11-23T08:20:28;3.80;99.90
12089;DHT22;6107;49.078;8.578;2022-11-23T08:22:55;3.80;99.90
12089;DHT22;6107;49.078;8.578;2022-11-23T08:25:22;3.80;99.90
12089;DHT22;6107;49.078;8.578;2022-11-23T08:27:53;3.90;99.90
12089;DHT22;6107;49.078;8.578;2022-11-23T08:30:19;4.10;99.90
12089;DHT22;6107;49.078;8.578;2022-11-23T08:32:44;4.10;99.90
12089;DHT22;6107;49.078;8.578;2022-11-23T08:35:10;4.30;99.90
12089;DHT22;6107;49.078;8.578;2022-11-23T08:37:35;4.40;99.90
12089;DHT22;6107;49.078;8.578;2022-11-23T08:40:01;4.60;99.90
12089;DHT22;6107;49.078;8.578;2022-11-23T08:42:27;4.80;99.90
12089;DHT22;6107;49.078;8.578;2022-11-23T08:44:52;5.40;99.90
12089;DHT22;6107;49.078;8.578;2022-11-23T08:47:18;5.40;99.90
12089;DHT22;6107;49.078;8.578;2022-11-23T08:49:43;5.20;99.90
12089;DHT22;6107;49.078;8.578;2022-11-23T08:52:09;5.40;99.90
12089;DHT22;6107;49.078;8.578;2022-11-23T08:54:35;5.50;99.90
12089;DHT22;6107;49.078;8.578;2022-11-23T08:57:00;5.70;99.90
12089;DHT22;6107;49.078;8.578;2022-11-23T08:59:26;5.80;99.90
12089;DHT22;6107;49.078;8.578;2022-11-23T09:01:51;6.10;99.90
12089;DHT22;6107;49.078;8.578;2022-11-23T09:04:17;6.30;99.90
12089;DHT22;6107;49.078;8.578;2022-11-23T09:06:42;6.50;99.90
12089;DHT22;6107;49.078;8.578;2022-11-23T09:09:08;6.70;99.90
12089;DHT22;6107;49.078;8.578;2022-11-23T09:11:33;6.80;99.90
12089;DHT22;6107;49.078;8.578;2022-11-23T09:13:59;6.80;99.90
12089;DHT22;6107;49.078;8.578;2022-11-23T09:16:24;7.40;99.90
12089;DHT22;6107;49.078;8.578;2022-11-23T09:18:54;7.80;99.90
12089;DHT22;6107;49.078;8.578;2022-11-23T09:21:20;8.00;99.90
12089;DHT22;6107;49.078;8.578;2022-11-23T09:23:45;8.30;99.90
12089;DHT22;6107;49.078;8.578;2022-11-23T09:26:11;8.50;99.90
12089;DHT22;6107;49.078;8.578;2022-11-23T09:28:37;8.70;99.90
12089;DHT22;6107;49.078;8.578;2022-11-23T09:31:03;9.00;99.90
12089;DHT22;6107;49.078;8.578;2022-11-23T09:33:29;9.10;99.90
12089;DHT22;6107;49.078;8.578;2022-11-23T09:35:58;9.50;99.90
12089;DHT22;6107;49.078;8.578;2022-11-23T09:38:23;9.50;99.90
12089;DHT22;6107;49.078;8.578;2022-11-23T09:44:02;10.40;99.90
12089;DHT22;6107;49.078;8.578;2022-11-23T09:49:16;10.50;99.90
12089;DHT22;6107;49.078;8.578;2022-11-23T09:51:43;11.90;99.90
12089;DHT22;6107;49.078;8.578;2022-11-23T09:54:29;11.60;99.90
12089;DHT22;6107;49.078;8.578;2022-11-23T09:56:57;11.40;99.90
12089;DHT22;6107;49.078;8.578;2022-11-23T10:01:55;11.30;99.90
12089;DHT22;6107;49.078;8.578;2022-11-23T10:04:20;10.60;99.90
12089;DHT22;6107;49.078;8.578;2022-11-23T10:06:56;11.80;99.90
12089;DHT22;6107;49.078;8.578;2022-11-23T10:09:55;10.50;99.90
12089;DHT22;6107;49.078;8.578;2022-11-23T10:12:50;12.20;99.90
12089;DHT22;6107;49.078;8.578;2022-11-23T10:15:39;12.60;99.90
12089;DHT22;6107;49.078;8.578;2022-11-23T10:20:57;12.80;99.90
12089;DHT22;6107;49.078;8.578;2022-11-23T10:26:11;13.00;99.90
12089;DHT22;6107;49.078;8.578;2022-11-23T10:28:38;13.30;99.90
12089;DHT22;6107;49.078;8.578;2022-11-23T10:31:15;13.40;99.90
12089;DHT22;6107;49.078;8.578;2022-11-23T10:36:26;13.50;99.90
12089;DHT22;6107;49.078;8.578;2022-11-23T10:38:59;13.90;99.90
12089;DHT22;6107;49.078;8.578;2022-11-23T10:41:28;14.10;99.90
12089;DHT22;6107;49.078;8.578;2022-11-23T10:44:06;14.20;99.90
12089;DHT22;6107;49.078;8.578;2022-11-23T10:46:38;14.20;99.90
12089;DHT22;6107;49.078;8.578;2022-11-23T10:49:26;14.40;99.90
12089;DHT22;6107;49.078;8.578;2022-11-23T10:52:04;14.60;99.90
12089;DHT22;6107;49.078;8.578;2022-11-23T10:54:34;14.70;99.90
12089;DHT22;6107;49.078;8.578;2022-11-23T10:57:19;14.70;99.90
12089;DHT22;6107;49.078;8.578;2022-11-23T11:02:53;14.80;99.90
12089;DHT22;6107;49.078;8.578;2022-11-23T11:05:32;15.00;98.20
12089;DHT22;6107;49.078;8.578;2022-11-23T11:10:49;15.30;98.10
12089;DHT22;6107;49.078;8.578;2022-11-23T11:13:27;15.10;97.80
12089;DHT22;6107;49.078;8.578;2022-11-23T11:15:56;15.50;96.70
12089;DHT22;6107;49.078;8.578;2022-11-23T11:18:25;15.60;96.90
12089;DHT22;6107;49.078;8.578;2022-11-23T11:20:56;15.00;92.40
12089;DHT22;6107;49.078;8.578;2022-11-23T11:23:23;14.90;94.20
12089;DHT22;6107;49.078;8.578;2022-11-23T11:25:49;15.40;96.20
12089;DHT22;6107;49.078;8.578;2022-11-23T11:28:36;15.80;95.20
12089;DHT22;6107;49.078;8.578;2022-11-23T11:35:18;16.20;95.60
12089;DHT22;6107;49.078;8.578;2022-11-23T11:45:32;16.20;92.50
12089;DHT22;6107;49.078;8.578;2022-11-23T11:48:17;16.30;93.70
12089;DHT22;6107;49.078;8.578;2022-11-23T11:51:02;16.40;92.40
12089;DHT22;6107;49.078;8.578;2022-11-23T11:53:38;16.60;93.30
12089;DHT22;6107;49.078;8.578;2022-11-23T12:04:25;16.50;88.30
12089;DHT22;6107;49.078;8.578;2022-11-23T12:09:42;16.80;88.90
12089;DHT22;6107;49.078;8.578;2022-11-23T12:12:15;16.80;84.40
12089;DHT22;6107;49.078;8.578;2022-11-23T12:14:42;16.80;82.30
12089;DHT22;6107;49.078;8.578;2022-11-23T12:17:32;17.10;83.40
12089;DHT22;6107;49.078;8.578;2022-11-23T12:20:20;17.40;92.90
12089;DHT22;6107;49.078;8.578;2022-11-23T12:25:45;16.90;78.30
12089;DHT22;6107;49.078;8.578;2022-11-23T12:28:22;17.10;72.50
12089;DHT22;6107;49.078;8.578;2022-11-23T12:31:10;16.70;75.90
12089;DHT22;6107;49.078;8.578;2022-11-23T12:34:01;17.30;76.70
12089;DHT22;6107;49.078;8.578;2022-11-23T12:37:38;17.00;71.50
12089;DHT22;6107;49.078;8.578;2022-11-23T12:42:41;16.70;68.60
12089;DHT22;6107;49.078;8.578;2022-11-23T12:47:51;16.90;70.10
12089;DHT22;6107;49.078;8.578;2022-11-23T12:50:29;16.80;68.70
12089;DHT22;6107;49.078;8.578;2022-11-23T12:53:43;16.80;74.10
12089;DHT22;6107;49.078;8.578;2022-11-23T12:56:43;16.60;66.30
12089;DHT22;6107;49.078;8.578;2022-11-23T12:59:14;17.40;67.70
12089;DHT22;6107;49.078;8.578;2022-11-23T13:01:43;16.60;64.00
12089;DHT22;6107;49.078;8.578;2022-11-23T13:09:34;17.00;83.70
12089;DHT22;6107;49.078;8.578;2022-11-23T13:15:20;16.90;85.30
12089;DHT22;6107;49.078;8.578;2022-11-23T13:18:18;16.60;71.50
12089;DHT22;6107;49.078;8.578;2022-11-23T13:23:45;16.50;70.20
12089;DHT22;6107;49.078;8.578;2022-11-23T13:26:16;16.40;69.40
12089;DHT22;6107;49.078;8.578;2022-11-23T13:28:44;16.00;74.50
12089;DHT22;6107;49.078;8.578;2022-11-23T13:31:28;15.80;78.80
12089;DHT22;6107;49.078;8.578;2022-11-23T13:33:58;15.30;77.30
12089;DHT22;6107;49.078;8.578;2022-11-23T13:39:00;14.90;82.40
12089;DHT22;6107;49.078;8.578;2022-11-23T13:44:22;14.00;91.40
12089;DHT22;6107;49.078;8.578;2022-11-23T13:49:45;13.60;94.00
12089;DHT22;6107;49.078;8.578;2022-11-23T13:57:38;13.00;98.80
12089;DHT22;6107;49.078;8.578;2022-11-23T14:09:51;12.40;99.90
12089;DHT22;6107;49.078;8.578;2022-11-23T14:15:26;12.40;99.90
12089;DHT22;6107;49.078;8.578;2022-11-23T14:21:38;12.00;99.90
12089;DHT22;6107;49.078;8.578;2022-11-23T14:24:28;12.00;99.90
12089;DHT22;6107;49.078;8.578;2022-11-23T14:29:53;11.80;99.90
12089;DHT22;6107;49.078;8.578;2022-11-23T14:32:44;11.70;99.90
12089;DHT22;6107;49.078;8.578;2022-11-23T14:35:27;11.60;99.90
12089;DHT22;6107;49.078;8.578;2022-11-23T14:41:05;11.30;99.90
12089;DHT22;6107;49.078;8.578;2022-11-23T14:43:32;11.60;99.90
12089;DHT22;6107;49.078;8.578;2022-11-23T14:46:00;11.50;99.90
12089;DHT22;6107;49.078;8.578;2022-11-23T14:48:32;11.30;99.90
12089;DHT22;6107;49.078;8.578;2022-11-23T14:51:09;11.20;99.90
12089;DHT22;6107;49.078;8.578;2022-11-23T14:53:39;11.10;99.90
12089;DHT22;6107;49.078;8.578;2022-11-23T14:56:05;11.10;99.90
12089;DHT22;6107;49.078;8.578;2022-11-23T14:58:31;10.90;99.90
12089;DHT22;6107;49.078;8.578;2022-11-23T15:00:59;11.00;99.90
12089;DHT22;6107;49.078;8.578;2022-11-23T15:03:27;10.90;99.90
12089;DHT22;6107;49.078;8.578;2022-11-23T15:06:14;10.80;99.90
12089;DHT22;6107;49.078;8.578;2022-11-23T15:08:46;10.80;99.90
12089;DHT22;6107;49.078;8.578;2022-11-23T15:11:19;10.80;99.90
12089;DHT22;6107;49.078;8.578;2022-11-23T15:13:47;10.90;99.90
12089;DHT22;6107;49.078;8.578;2022-11-23T15:16:14;11.00;99.90
12089;DHT22;6107;49.078;8.578;2022-11-23T15:18:41;10.80;99.90
12089;DHT22;6107;49.078;8.578;2022-11-23T15:24:01;10.90;99.90
12089;DHT22;6107;49.078;8.578;2022-11-23T15:26:29;10.80;99.90
12089;DHT22;6107;49.078;8.578;2022-11-23T15:28:55;10.70;99.90
12089;DHT22;6107;49.078;8.578;2022-11-23T15:33:51;10.70;99.90
12089;DHT22;6107;49.078;8.578;2022-11-23T15:36:22;10.60;99.90
12089;DHT22;6107;49.078;8.578;2022-11-23T15:38:50;10.60;99.90
12089;DHT22;6107;49.078;8.578;2022-11-23T15:41:16;10.70;99.90
12089;DHT22;6107;49.078;8.578;2022-11-23T15:43:56;10.60;99.90
12089;DHT22;6107;49.078;8.578;2022-11-23T15:46:43;10.60;99.90
12089;DHT22;6107;49.078;8.578;2022-11-23T15:49:12;10.40;99.90
12089;DHT22;6107;49.078;8.578;2022-11-23T15:51:40;10.50;99.90
12089;DHT22;6107;49.078;8.578;2022-11-23T15:54:24;10.50;99.90
12089;DHT22;6107;49.078;8.578;2022-11-23T15:56:52;10.50;99.90
12089;DHT22;6107;49.078;8.578;2022-11-23T16:02:20;10.50;99.90
12089;DHT22;6107;49.078;8.578;2022-11-23T16:04:45;10.40;99.90
12089;DHT22;6107;49.078;8.578;2022-11-23T16:07:22;10.40;99.90
12089;DHT22;6107;49.078;8.578;2022-11-23T16:09:50;10.40;99.90
12089;DHT22;6107;49.078;8.578;2022-11-23T16:12:29;10.50;99.90
12089;DHT22;6107;49.078;8.578;2022-11-23T16:17:55;10.30;99.90
12089;DHT22;6107;49.078;8.578;2022-11-23T16:20:22;10.30;99.90
12089;DHT22;6107;49.078;8.578;2022-11-23T16:22:50;10.40;99.90
12089;DHT22;6107;49.078;8.578;2022-11-23T16:28:03;10.50;99.90
12089;DHT22;6107;49.078;8.578;2022-11-23T16:30:38;10.40;99.90
12089;DHT22;6107;49.078;8.578;2022-11-23T16:33:05;10.40;99.90
12089;DHT22;6107;49.078;8.578;2022-11-23T16:35:30;10.40;99.90
12089;DHT22;6107;49.078;8.578;2022-11-23T16:37:56;10.50;99.90
12089;DHT22;6107;49.078;8.578;2022-11-23T16:40:22;10.50;99.90
12089;DHT22;6107;49.078;8.578;2022-11-23T16:42:51;10.30;99.90
12089;DHT22;6107;49.078;8.578;2022-11-23T16:45:17;10.30;99.90
12089;DHT22;6107;49.078;8.578;2022-11-23T16:47:57;10.20;99.90
12089;DHT22;6107;49.078;8.578;2022-11-23T16:50:26;10.20;99.90
12089;DHT22;6107;49.078;8.578;2022-11-23T16:52:52;10.10;99.90
12089;DHT22;6107;49.078;8.578;2022-11-23T16:55:18;10.20;99.90
12089;DHT22;6107;49.078;8.578;2022-11-23T16:57:43;10.00;99.90
12089;DHT22;6107;49.078;8.578;2022-11-23T17:00:27;9.90;99.90
12089;DHT22;6107;49.078;8.578;2022-11-23T17:02:53;9.80;99.90
12089;DHT22;6107;49.078;8.578;2022-11-23T17:05:20;9.70;99.90
12089;DHT22;6107;49.078;8.578;2022-11-23T17:07:48;9.60;99.90
12089;DHT22;6107;49.078;8.578;2022-11-23T17:10:14;9.60;99.90
12089;DHT22;6107;49.078;8.578;2022-11-23T17:12:47;9.70;99.90
12089;DHT22;6107;49.078;8.578;2022-11-23T17:15:20;9.70;99.90
12089;DHT22;6107;49.078;8.578;2022-11-23T17:17:46;9.60;99.90
12089;DHT22;6107;49.078;8.578;2022-11-23T17:20:13;9.60;99.90
12089;DHT22;6107;49.078;8.578;2022-11-23T17:22:38;9.60;99.90
12089;DHT22;6107;49.078;8.578;2022-11-23T17:25:05;9.40;99.90
12089;DHT22;6107;49.078;8.578;2022-11-23T17:27:33;9.40;99.90
12089;DHT22;6107;49.078;8.578;2022-11-23T17:30:01;9.50;99.90
12089;DHT22;6107;49.078;8.578;2022-11-23T17:32:30;9.60;99.90
12089;DHT22;6107;49.078;8.578;2022-11-23T17:34:57;9.30;99.90
12089;DHT22;6107;49.078;8.578;2022-11-23T17:37:23;9.40;99.90
12089;DHT22;6107;49.078;8.578;2022-11-23T17:39:49;9.20;99.90
12089;DHT22;6107;49.078;8.578;2022-11-23T17:42:15;9.00;99.90
12089;DHT22;6107;49.078;8.578;2022-11-23T17:44:41;8.90;99.90
12089;DHT22;6107;49.078;8.578;2022-11-23T17:47:22;8.80;99.90
12089;DHT22;6107;49.078;8.578;2022-11-23T17:49:48;8.60;99.90
12089;DHT22;6107;49.078;8.578;2022-11-23T17:52:13;8.50;99.90
12089;DHT22;6107;49.078;8.578;2022-11-23T17:54:39;8.60;99.90
12089;DHT22;6107;49.078;8.578;2022-11-23T17:57:04;8.60;99.90
12089;DHT22;6107;49.078;8.578;2022-11-23T17:59:30;8.60;99.90
12089;DHT22;6107;49.078;8.578;2022-11-23T18:01:55;8.60;99.90
12089;DHT22;6107;49.078;8.578;2022-11-23T18:04:22;8.70;99.90